Holton, MI (49425)

8:58 AM EST on February 28, 2015 (GMT -0500)
98.9FM Real Gold Radio station - 1.6 mi SE of DT Whitehall, MI | Change Station
CLOSE
Current Station
Personal Weather Station
Location: Whitehall, MI
Elevation: 712 ft
Nearby Weather Stations

Elev 712 ft 43.39 °N, 86.33 °W | Updated 11 minutes ago

Mostly Cloudy
Mostly Cloudy
13.9 °F
Feels Like 14 °F
N
2.0
Wind Variable Wind from SSW
Gusts 3.0 mph

Today
High -- | Low -- °F
--% Chance of Precip.
Yesterday
High -- | Low -- °F
Precip. -- in
7:23 AM 6:32 PM
Waxing Gibbous, 77% visible
Pressure 30.67 in
Visibility 10.0 miles
Clouds Mostly Cloudy 2100 ft
Windchill 14 °F
Dew Point 10 °F
Humidity 84%
Rainfall 0.00 in
Snow Depth Not available.
UV 0 out of 12
Pollen .30 out of 12
Air Quality Not available.
Flu Activity Not available.
METAR KFFX 281354Z AUTO 00000KT 10SM BKN021 M15/M17 A3067 RMK AO2 T11491170

More Conditions Fewer Conditions

Pressure 30.67 in
Visibility 10.0 miles
Clouds Mostly Cloudy 2100 ft
Windchill 14 °F
Dew Point 10 °F
Humidity 84%
Rainfall 0.00 in
Snow Depth Not available.
UV 0 out of 12
Pollen .30 out of 12
Air Quality Not available.
Flu Activity Not available.
METAR KFFX 281354Z AUTO 00000KT 10SM BKN021 M15/M17 A3067 RMK AO2 T11491170

More Conditions Fewer Conditions

10-Day Weather Forecast

Almanac

Astronomy

Feb. 28, 2015 Rise Set
Actual Time
Civil Twilight
Nautical Twilight
Astronomical Twilight
Moon
Length of Visible Light
Length of Day
Tomorrow will be .
, % of the Moon is Illuminated

Today's Extremes

State Highs State Lows

Community

WunderPhotos

Upload Photos

1,801,014 photos uploaded!

WunderBlogs® & News

Nearby

Air Quality

  Air Quality AQ Index Pollutant
Not available.

Snow Depth

Station Depth Elevation

Earthquake Activity

City Distance Mag. Time & Date
Minimum magnitude displayed is 2.5.

Coastal Water Temperatures

Place Temperature

Nearby Weather Stations